createdAt,value
2018-08-25T00:02:21.366Z,2.13
2018-08-25T00:04:51.105Z,2.13
2018-08-25T00:07:21.114Z,2.13
2018-08-25T00:09:49.630Z,1.80
2018-08-25T00:12:20.014Z,2.20
2018-08-25T00:14:50.548Z,2.10
2018-08-25T00:17:20.878Z,2.67
2018-08-25T00:19:49.678Z,2.07
2018-08-25T00:22:18.317Z,1.90
2018-08-25T00:24:47.196Z,2.00
2018-08-25T00:27:16.236Z,2.53
2018-08-25T00:29:46.559Z,2.67
2018-08-25T00:32:15.774Z,2.33
2018-08-25T00:34:45.890Z,2.10
2018-08-25T00:37:18.682Z,2.20
2018-08-25T00:39:47.203Z,2.50
2018-08-25T00:42:17.214Z,2.00
2018-08-25T00:44:52.626Z,2.53
2018-08-25T00:47:22.375Z,1.90
2018-08-25T00:49:51.558Z,2.30
2018-08-25T00:52:20.804Z,2.20
2018-08-25T00:54:50.298Z,2.13
2018-08-25T00:57:19.069Z,2.10
2018-08-25T00:59:48.329Z,2.23
2018-08-25T01:02:16.978Z,1.93
2018-08-25T01:04:46.678Z,1.93
2018-08-25T01:07:15.210Z,1.93
2018-08-25T01:09:44.128Z,1.90
2018-08-25T01:12:12.732Z,2.13
2018-08-25T01:14:41.762Z,2.17
2018-08-25T01:17:15.383Z,2.43
2018-08-25T01:19:44.294Z,2.00
2018-08-25T01:22:13.442Z,2.23
2018-08-25T01:24:42.357Z,2.40
2018-08-25T01:27:26.344Z,2.00
2018-08-25T01:29:54.976Z,2.40
2018-08-25T01:32:23.726Z,2.50
2018-08-25T01:34:52.259Z,2.47
2018-08-25T01:37:32.348Z,2.20
2018-08-25T01:40:00.902Z,2.00
2018-08-25T01:42:29.431Z,2.13
2018-08-25T01:44:58.198Z,2.10
2018-08-25T01:47:27.431Z,2.07
2018-08-25T01:49:56.334Z,1.97
2018-08-25T01:52:25.942Z,2.30
2018-08-25T01:54:55.989Z,2.20
2018-08-25T01:57:25.975Z,2.27
2018-08-25T01:59:56.334Z,2.07
2018-08-25T02:02:25.223Z,2.30
2018-08-25T02:04:55.427Z,2.23
2018-08-25T02:10:41.562Z,2.33
2018-08-25T02:13:11.372Z,2.33
2018-08-25T02:15:40.663Z,2.00
2018-08-25T02:18:09.890Z,2.40
2018-08-25T02:20:38.521Z,2.23
2018-08-25T02:23:07.516Z,2.20
2018-08-25T02:25:36.532Z,1.87
2018-08-25T02:28:07.054Z,2.27
2018-08-25T02:30:36.266Z,2.37
2018-08-25T02:33:05.381Z,2.27
2018-08-25T02:35:36.079Z,2.43
2018-08-25T02:38:07.731Z,2.60
2018-08-25T02:40:37.547Z,2.17
2018-08-25T02:43:06.738Z,2.10
2018-08-25T02:45:35.799Z,2.43
2018-08-25T02:48:16.362Z,2.20
2018-08-25T02:50:47.347Z,2.30
2018-08-25T02:53:17.335Z,1.97
2018-08-25T02:55:47.054Z,2.30
2018-08-25T02:58:17.251Z,2.43
2018-08-25T03:00:46.731Z,2.27
2018-08-25T03:03:15.249Z,2.60
2018-08-25T03:05:44.462Z,1.97
2018-08-25T03:08:14.713Z,2.23
2018-08-25T03:10:53.023Z,2.60
2018-08-25T03:13:22.880Z,2.40
2018-08-25T03:15:52.374Z,2.00
2018-08-25T03:18:22.350Z,2.37
2018-08-25T03:20:56.180Z,2.50
2018-08-25T03:23:25.764Z,2.50
2018-08-25T03:25:54.323Z,2.30
2018-08-25T03:28:23.646Z,2.60
2018-08-25T03:30:57.011Z,2.37
2018-08-25T03:33:27.119Z,2.17
2018-08-25T03:36:01.096Z,2.27
2018-08-25T03:38:30.616Z,2.00
2018-08-25T03:41:00.630Z,1.90
2018-08-25T03:43:29.809Z,2.60
2018-08-25T03:45:59.241Z,2.17
2018-08-25T03:48:28.907Z,2.27
2018-08-25T03:50:58.241Z,2.10
2018-08-25T03:53:27.267Z,2.40
2018-08-25T03:55:56.728Z,2.10
2018-08-25T03:58:26.522Z,2.50
2018-08-25T04:00:55.654Z,2.47
2018-08-25T04:03:24.990Z,2.13
2018-08-25T04:05:54.657Z,2.40
2018-08-25T04:08:24.983Z,2.40
2018-08-25T04:10:55.008Z,2.30
2018-08-25T04:13:25.415Z,2.17
2018-08-25T04:15:54.902Z,2.37
2018-08-25T04:18:25.405Z,2.20
2018-08-25T04:20:55.293Z,2.40
2018-08-25T04:23:24.880Z,2.00
2018-08-25T04:25:54.430Z,1.97
2018-08-25T04:28:24.490Z,2.40
2018-08-25T04:30:57.367Z,2.80
2018-08-25T04:33:27.368Z,2.50
2018-08-25T04:35:56.286Z,2.30
2018-08-25T04:38:25.835Z,2.53
2018-08-25T04:40:58.107Z,2.30
2018-08-25T04:43:26.638Z,2.50
2018-08-25T04:45:55.630Z,3.10
2018-08-25T04:48:24.656Z,2.60
2018-08-25T04:50:55.642Z,2.77
2018-08-25T04:53:25.277Z,2.80
2018-08-25T04:55:54.639Z,2.30
2018-08-25T04:58:23.779Z,2.30
2018-08-25T05:00:52.933Z,2.57
2018-08-25T05:03:28.670Z,2.60
2018-08-25T05:05:57.981Z,2.43
2018-08-25T05:08:27.733Z,2.23
2018-08-25T05:10:57.584Z,2.47
2018-08-25T05:13:27.580Z,2.30
2018-08-25T05:15:57.617Z,2.53
2018-08-25T05:18:28.074Z,2.70
2018-08-25T05:20:58.105Z,2.50
2018-08-25T05:23:35.188Z,2.57
2018-08-25T05:26:03.731Z,2.40
2018-08-25T05:28:34.195Z,2.60
2018-08-25T05:31:03.985Z,2.40
2018-08-25T05:33:45.009Z,3.23
2018-08-25T05:36:13.559Z,2.17
2018-08-25T05:38:43.386Z,2.50
2018-08-25T05:41:12.890Z,2.60
2018-08-25T05:43:43.736Z,2.67
2018-08-25T05:46:13.952Z,2.50
2018-08-25T05:48:44.281Z,2.30
2018-08-25T05:51:13.423Z,2.40
2018-08-25T06:07:45.495Z,2.63
2018-08-25T06:10:14.291Z,2.77
2018-08-25T06:12:44.458Z,3.10
2018-08-25T06:15:14.669Z,2.57
2018-08-25T06:17:44.513Z,2.77
2018-08-25T06:20:14.143Z,2.73
2018-08-25T06:22:43.031Z,2.70
2018-08-25T06:25:12.741Z,2.70
2018-08-25T06:27:44.600Z,2.37
2018-08-25T06:30:14.445Z,2.60
2018-08-25T06:32:43.054Z,2.20
2018-08-25T06:35:12.241Z,2.83
2018-08-25T06:37:42.697Z,2.57
2018-08-25T06:40:12.035Z,2.97
2018-08-25T06:42:41.532Z,3.07
2018-08-25T06:45:10.907Z,3.07
2018-08-25T06:47:44.277Z,2.90
2018-08-25T06:50:13.365Z,2.70
2018-08-25T06:52:42.223Z,2.87
2018-08-25T06:55:11.060Z,3.10
2018-08-25T06:57:40.512Z,2.67
2018-08-25T07:00:10.170Z,2.67
2018-08-25T07:02:39.360Z,2.47
2018-08-25T07:05:08.679Z,2.97
2018-08-25T07:07:38.095Z,2.73
2018-08-25T07:10:08.523Z,2.57
2018-08-25T07:12:38.730Z,2.57
2018-08-25T07:15:08.138Z,3.27
2018-08-25T07:17:38.951Z,2.37
2018-08-25T07:20:08.759Z,2.50
2018-08-25T07:22:37.926Z,2.63
2018-08-25T07:25:07.108Z,2.50
2018-08-25T07:27:37.524Z,2.10
2018-08-25T07:30:12.282Z,2.47
2018-08-25T07:32:41.910Z,2.37
2018-08-25T07:35:12.403Z,2.50
2018-08-25T07:37:42.623Z,2.30
2018-08-25T07:40:13.290Z,2.33
2018-08-25T07:42:43.242Z,2.50
2018-08-25T07:45:12.837Z,2.30
2018-08-25T07:47:41.831Z,2.33
2018-08-25T07:50:12.582Z,2.40
2018-08-25T07:52:41.781Z,2.23
2018-08-25T07:55:11.853Z,2.23
2018-08-25T07:57:41.786Z,2.07
2018-08-25T08:00:12.901Z,2.43
2018-08-25T08:02:42.947Z,2.07
2018-08-25T08:05:15.018Z,2.00
2018-08-25T08:07:46.887Z,2.10
2018-08-25T08:10:18.979Z,2.57
2018-08-25T08:12:48.463Z,2.53
2018-08-25T08:15:19.888Z,2.30
2018-08-25T08:17:50.659Z,2.20
2018-08-25T08:20:24.439Z,2.40
2018-08-25T08:22:53.330Z,2.77
2018-08-25T08:25:22.676Z,2.00
2018-08-25T08:27:52.886Z,1.77
2018-08-25T08:30:23.382Z,2.20
2018-08-25T08:32:52.702Z,2.10
2018-08-25T08:35:21.441Z,2.13
2018-08-25T08:37:50.904Z,2.33
2018-08-25T08:40:21.327Z,2.60
2018-08-25T08:42:50.330Z,2.70
2018-08-25T08:45:20.343Z,2.03
2018-08-25T08:47:48.855Z,2.07
2018-08-25T08:50:18.657Z,2.00
2018-08-25T08:52:47.997Z,2.20
2018-08-25T08:55:17.343Z,1.70
2018-08-25T08:57:45.894Z,2.43
2018-08-25T09:00:17.144Z,2.00
2018-08-25T09:02:46.050Z,1.93
2018-08-25T09:05:15.432Z,2.00
2018-08-25T09:07:44.443Z,1.90
2018-08-25T09:10:14.727Z,2.00
2018-08-25T09:12:44.710Z,2.13
2018-08-25T09:15:16.135Z,2.27
2018-08-25T09:17:46.211Z,2.23
2018-08-25T09:20:23.733Z,2.03
2018-08-25T09:22:52.269Z,2.30
2018-08-25T09:25:22.588Z,1.87
2018-08-25T09:27:51.819Z,1.90
2018-08-25T09:30:24.227Z,2.07
2018-08-25T09:32:52.974Z,2.47
2018-08-25T09:35:22.662Z,1.73
2018-08-25T09:37:52.517Z,1.90
2018-08-25T09:43:42.152Z,1.83
2018-08-25T09:46:11.249Z,1.80
2018-08-25T09:48:41.705Z,1.90
2018-08-25T09:51:13.258Z,2.30
2018-08-25T09:53:43.999Z,1.70
2018-08-25T09:56:15.453Z,1.70
2018-08-25T09:58:46.860Z,2.10
2018-08-25T10:04:09.074Z,1.93
2018-08-25T10:06:39.216Z,1.87
2018-08-25T10:09:09.646Z,1.83
2018-08-25T10:11:45.430Z,1.60
2018-08-25T10:14:14.387Z,1.57
2018-08-25T10:16:44.727Z,1.80
2018-08-25T10:19:15.321Z,1.50
2018-08-25T10:21:51.229Z,1.70
2018-08-25T10:24:22.423Z,1.77
2018-08-25T10:26:52.925Z,1.80
2018-08-25T10:29:24.374Z,1.40
2018-08-25T10:31:56.394Z,1.50
2018-08-25T10:34:26.706Z,1.40
2018-08-25T10:36:57.419Z,1.50
2018-08-25T10:39:27.239Z,2.10
2018-08-25T10:41:58.350Z,1.60
2018-08-25T10:44:29.210Z,1.53
2018-08-25T10:46:59.555Z,1.60
2018-08-25T10:49:29.065Z,1.40
2018-08-25T10:52:00.500Z,2.03
2018-08-25T10:54:35.260Z,1.90
2018-08-25T10:57:05.414Z,1.83
2018-08-25T10:59:34.694Z,1.87
2018-08-25T11:02:05.459Z,1.97
2018-08-25T11:04:38.250Z,1.83
2018-08-25T11:07:34.505Z,1.73
2018-08-25T11:10:06.969Z,1.57
2018-08-25T11:12:37.386Z,2.00
2018-08-25T11:15:08.830Z,1.77
2018-08-25T11:17:39.418Z,1.90
2018-08-25T11:20:11.704Z,1.83
2018-08-25T11:22:42.404Z,1.93
2018-08-25T11:25:12.302Z,1.83
2018-08-25T11:27:41.983Z,1.80
2018-08-25T11:30:12.875Z,2.13
2018-08-25T11:32:42.761Z,2.40
2018-08-25T11:35:11.592Z,3.53
2018-08-25T11:37:41.488Z,3.73
2018-08-25T11:40:10.019Z,4.50
2018-08-25T11:42:39.482Z,3.90
2018-08-25T11:45:10.366Z,4.03
2018-08-25T11:47:45.489Z,8.00
2018-08-25T11:50:16.361Z,6.97
2018-08-25T11:52:46.015Z,5.60
2018-08-25T11:58:09.015Z,3.90
2018-08-25T12:00:37.847Z,4.00
2018-08-25T12:03:59.628Z,3.53
2018-08-25T12:06:31.933Z,3.23
2018-08-25T12:09:02.330Z,3.07
2018-08-25T12:11:33.642Z,2.93
2018-08-25T12:14:04.497Z,2.73
2018-08-25T12:16:34.326Z,2.50
2018-08-25T12:19:04.107Z,1.90
2018-08-25T12:21:33.178Z,1.93
2018-08-25T12:24:02.148Z,2.47
2018-08-25T12:26:31.901Z,1.70
2018-08-25T12:29:02.012Z,2.03
2018-08-25T12:31:33.435Z,2.03
2018-08-25T12:34:05.392Z,1.87
2018-08-25T12:36:34.352Z,2.23
2018-08-25T12:39:03.592Z,1.90
2018-08-25T12:41:34.090Z,2.70
2018-08-25T12:44:07.408Z,1.87
2018-08-25T12:46:38.044Z,2.30
2018-08-25T12:49:09.263Z,1.83
2018-08-25T12:51:39.563Z,2.20
2018-08-25T12:54:10.515Z,2.00
2018-08-25T12:56:39.628Z,1.70
2018-08-25T12:59:09.478Z,1.53
2018-08-25T13:01:39.868Z,1.53
2018-08-25T13:04:09.472Z,1.43
2018-08-25T13:06:39.032Z,1.57
2018-08-25T13:09:12.990Z,1.33
2018-08-25T13:11:41.819Z,1.37
2018-08-25T13:14:11.423Z,1.13
2018-08-25T13:16:41.289Z,1.70
2018-08-25T13:19:12.845Z,1.40
2018-08-25T13:21:42.477Z,1.63
2018-08-25T13:24:12.102Z,1.50
2018-08-25T13:26:42.847Z,1.10
2018-08-25T13:29:19.794Z,1.07
2018-08-25T13:31:49.356Z,0.90
2018-08-25T13:34:19.296Z,1.10
2018-08-25T13:36:48.447Z,1.33
2018-08-25T13:39:17.870Z,1.00
2018-08-25T13:41:47.727Z,1.37
2018-08-25T13:44:16.661Z,1.10
2018-08-25T13:46:47.371Z,1.00
2018-08-25T13:49:17.439Z,1.07
2018-08-25T13:51:49.112Z,1.10
2018-08-25T13:54:18.138Z,1.03
2018-08-25T13:56:49.230Z,0.90
2018-08-25T13:59:19.098Z,1.00
2018-08-25T14:01:48.555Z,0.80
2018-08-25T14:04:18.760Z,1.57
2018-08-25T14:06:48.185Z,0.93
2018-08-25T14:09:24.162Z,1.23
2018-08-25T14:11:53.198Z,1.00
2018-08-25T14:14:23.178Z,1.00
2018-08-25T14:16:52.752Z,1.00
2018-08-25T14:19:23.433Z,0.80
2018-08-25T14:21:53.067Z,0.83
2018-08-25T14:24:22.604Z,1.50
2018-08-25T14:26:53.530Z,1.50
2018-08-25T14:29:24.092Z,1.60
2018-08-25T14:31:53.877Z,1.30
2018-08-25T14:34:24.397Z,1.80
2018-08-25T14:36:53.794Z,1.40
2018-08-25T14:39:24.535Z,0.97
2018-08-25T14:41:54.536Z,1.10
2018-08-25T14:44:24.600Z,1.20
2018-08-25T14:46:55.315Z,0.93
2018-08-25T14:49:27.894Z,1.17
2018-08-25T14:51:57.032Z,1.10
2018-08-25T14:54:27.673Z,1.40
2018-08-25T14:56:58.293Z,1.30
2018-08-25T14:59:40.083Z,0.90
2018-08-25T15:02:09.369Z,0.93
2018-08-25T15:04:38.653Z,1.10
2018-08-25T15:07:07.286Z,0.80
2018-08-25T15:12:59.341Z,0.93
2018-08-25T15:15:29.531Z,1.20
2018-08-25T15:17:59.038Z,0.90
2018-08-25T15:20:41.422Z,0.93
2018-08-25T15:23:10.283Z,1.40
2018-08-25T15:25:39.499Z,1.47
2018-08-25T15:28:09.466Z,1.20
2018-08-25T15:30:41.111Z,1.03
2018-08-25T15:33:10.106Z,1.00
2018-08-25T15:35:39.653Z,1.00
2018-08-25T15:38:08.978Z,1.00
2018-08-25T15:40:38.631Z,1.13
2018-08-25T15:43:09.203Z,0.97
2018-08-25T15:45:39.604Z,1.00
2018-08-25T15:48:08.810Z,1.03
2018-08-25T15:50:38.006Z,1.10
2018-08-25T15:53:17.752Z,0.80
2018-08-25T15:55:47.722Z,1.30
2018-08-25T15:58:16.974Z,1.00
2018-08-25T16:00:46.792Z,1.13
2018-08-25T16:03:23.060Z,1.00
2018-08-25T16:05:53.039Z,1.20
2018-08-25T16:08:22.697Z,1.10
2018-08-25T16:10:52.379Z,1.03
2018-08-25T16:13:22.929Z,0.90
2018-08-25T16:15:52.915Z,1.10
2018-08-25T16:18:22.281Z,1.00
2018-08-25T16:20:52.209Z,0.87
2018-08-25T16:23:33.081Z,0.90
2018-08-25T16:26:03.186Z,1.10
2018-08-25T16:28:33.631Z,1.00
2018-08-25T16:31:02.959Z,2.27
2018-08-25T16:36:33.463Z,1.30
2018-08-25T16:39:03.306Z,0.90
2018-08-25T16:41:32.062Z,1.27
2018-08-25T16:44:01.550Z,1.50
2018-08-25T16:46:30.968Z,0.70
2018-08-25T16:49:01.267Z,1.10
2018-08-25T16:51:31.430Z,0.80
2018-08-25T16:54:03.001Z,1.07
2018-08-25T16:56:39.657Z,1.00
2018-08-25T16:59:08.612Z,1.10
2018-08-25T17:01:37.847Z,1.43
2018-08-25T17:04:08.061Z,1.50
2018-08-25T17:06:37.360Z,1.27
2018-08-25T17:09:09.252Z,1.00
2018-08-25T17:11:38.707Z,1.23
2018-08-25T17:14:09.065Z,1.10
2018-08-25T17:16:46.021Z,1.23
2018-08-25T17:19:14.906Z,1.07
2018-08-25T17:21:44.225Z,1.10
2018-08-25T17:24:13.500Z,0.93
2018-08-25T17:26:54.919Z,1.00
2018-08-25T17:29:24.879Z,1.27
2018-08-25T17:31:54.838Z,0.97
2018-08-25T17:34:23.399Z,0.80
2018-08-25T17:36:54.095Z,1.10
2018-08-25T17:39:23.764Z,1.30
2018-08-25T17:41:54.042Z,1.30
2018-08-25T17:44:27.946Z,1.10
2018-08-25T17:47:00.462Z,1.20
2018-08-25T17:49:30.761Z,1.20
2018-08-25T17:52:02.031Z,1.30
2018-08-25T17:54:32.846Z,1.10
2018-08-25T17:57:05.293Z,1.20
2018-08-25T17:59:34.254Z,1.30
2018-08-25T18:02:04.586Z,0.93
2018-08-25T18:04:35.289Z,1.30
2018-08-25T18:07:08.399Z,1.00
2018-08-25T18:09:38.081Z,1.00
2018-08-25T18:12:13.511Z,1.40
2018-08-25T18:14:42.753Z,0.90
2018-08-25T18:17:13.706Z,1.00
2018-08-25T18:19:44.506Z,0.90
2018-08-25T18:22:15.011Z,1.10
2018-08-25T18:24:45.981Z,1.00
2018-08-25T18:27:16.313Z,1.00
2018-08-25T18:29:46.987Z,1.03
2018-08-25T18:32:16.598Z,1.03
2018-08-25T18:34:46.248Z,1.20
2018-08-25T18:37:16.567Z,0.77
2018-08-25T18:39:45.548Z,1.20
2018-08-25T18:42:15.163Z,0.97
2018-08-25T18:44:44.579Z,1.17
2018-08-25T18:47:21.185Z,1.10
2018-08-25T18:49:51.363Z,1.20
2018-08-25T18:52:26.718Z,1.10
2018-08-25T18:54:56.641Z,0.80
2018-08-25T18:57:27.531Z,1.00
2018-08-25T18:59:56.906Z,0.90
2018-08-25T19:02:26.245Z,1.20
2018-08-25T19:04:56.209Z,1.10
2018-08-25T19:07:27.528Z,1.00
2018-08-25T19:09:56.302Z,1.00
2018-08-25T19:12:25.989Z,0.80
2018-08-25T19:14:55.923Z,1.10
2018-08-25T19:17:24.603Z,0.80
2018-08-25T19:19:54.601Z,1.17
2018-08-25T19:22:23.564Z,1.20
2018-08-25T19:24:52.926Z,0.90
2018-08-25T19:27:22.251Z,0.83
2018-08-25T19:29:52.103Z,1.13
2018-08-25T19:32:25.409Z,1.10
2018-08-25T19:34:55.139Z,0.90
2018-08-25T19:40:41.599Z,1.20
2018-08-25T19:43:19.516Z,1.03
2018-08-25T19:46:01.981Z,0.97
2018-08-25T19:48:31.084Z,1.03
2018-08-25T19:51:00.874Z,1.07
2018-08-25T19:53:34.316Z,1.00
2018-08-25T19:56:09.481Z,0.67
2018-08-25T19:58:43.774Z,1.00
2018-08-25T20:01:18.898Z,0.90
2018-08-25T20:03:52.271Z,1.00
2018-08-25T20:06:31.755Z,0.90
2018-08-25T20:09:09.092Z,1.07
2018-08-25T20:11:38.654Z,0.90
2018-08-25T20:14:07.571Z,1.00
2018-08-25T20:16:55.521Z,0.70
2018-08-25T20:19:24.069Z,0.80
2018-08-25T20:21:52.648Z,0.90
2018-08-25T20:24:22.809Z,0.93
2018-08-25T20:26:52.525Z,1.00
2018-08-25T20:29:21.650Z,1.07
2018-08-25T20:31:51.801Z,0.90
2018-08-25T20:34:21.407Z,0.83
2018-08-25T20:36:50.159Z,1.07
2018-08-25T20:39:19.015Z,1.00
2018-08-25T20:41:48.927Z,1.13
2018-08-25T20:44:18.254Z,0.90
2018-08-25T20:46:48.620Z,1.10
2018-08-25T20:49:18.011Z,1.10
2018-08-25T20:51:47.888Z,1.23
2018-08-25T20:54:17.993Z,1.00
2018-08-25T20:56:47.525Z,1.00
2018-08-25T20:59:17.658Z,0.97
2018-08-25T21:01:47.197Z,0.70
2018-08-25T21:04:16.723Z,1.00
2018-08-25T21:06:57.619Z,1.30
2018-08-25T21:09:26.170Z,1.20
2018-08-25T21:11:55.399Z,0.83
2018-08-25T21:14:25.355Z,1.00
2018-08-25T21:17:01.639Z,0.90
2018-08-25T21:19:30.435Z,0.97
2018-08-25T21:22:00.844Z,1.03
2018-08-25T21:24:29.887Z,1.20
2018-08-25T21:27:01.651Z,1.17
2018-08-25T21:29:31.619Z,1.27
2018-08-25T21:32:00.963Z,1.10
2018-08-25T21:34:30.127Z,1.10
2018-08-25T21:36:59.608Z,1.10
2018-08-25T21:39:28.936Z,1.20
2018-08-25T21:41:58.481Z,1.10
2018-08-25T21:44:27.260Z,0.93
2018-08-25T21:46:55.963Z,1.10
2018-08-25T21:49:25.201Z,0.80
2018-08-25T21:51:54.433Z,1.20
2018-08-25T21:54:24.016Z,0.83
2018-08-25T21:56:55.034Z,0.80
2018-08-25T21:59:25.952Z,1.30
2018-08-25T22:02:01.316Z,1.10
2018-08-25T22:04:30.843Z,1.10
2018-08-25T22:07:01.947Z,0.83
2018-08-25T22:09:32.653Z,0.90
2018-08-25T22:12:03.551Z,0.90
2018-08-25T22:14:33.087Z,0.87
2018-08-25T22:17:08.223Z,0.80
2018-08-25T22:19:37.169Z,1.00
2018-08-25T22:22:07.228Z,1.10
2018-08-25T22:24:37.642Z,0.90
2018-08-25T22:27:14.121Z,0.83
2018-08-25T22:29:43.050Z,0.80
2018-08-25T22:32:13.001Z,0.80
2018-08-25T22:34:41.558Z,1.00
2018-08-25T22:37:12.993Z,1.10
2018-08-25T22:39:41.503Z,1.10
2018-08-25T22:42:10.034Z,0.87
2018-08-25T22:44:38.528Z,1.10
2018-08-25T22:47:07.077Z,0.83
2018-08-25T22:49:36.673Z,1.07
2018-08-25T22:52:07.533Z,0.93
2018-08-25T22:54:36.285Z,1.10
2018-08-25T22:57:05.141Z,1.10
2018-08-25T22:59:33.676Z,1.00
2018-08-25T23:02:02.398Z,0.83
2018-08-25T23:04:31.021Z,1.10
2018-08-25T23:07:00.613Z,1.07
2018-08-25T23:09:31.147Z,1.10
2018-08-25T23:11:59.891Z,1.10
2018-08-25T23:14:28.978Z,1.20
2018-08-25T23:16:58.471Z,0.90
2018-08-25T23:24:27.489Z,1.10
2018-08-25T23:26:56.826Z,1.10
2018-08-25T23:29:26.172Z,1.13
2018-08-25T23:31:56.518Z,1.33
2018-08-25T23:34:25.911Z,1.10
2018-08-25T23:36:55.550Z,1.00
2018-08-25T23:39:25.429Z,1.13
2018-08-25T23:41:54.956Z,1.20
2018-08-25T23:44:24.733Z,1.00
2018-08-25T23:46:54.046Z,1.20
2018-08-25T23:49:22.795Z,1.40
2018-08-25T23:51:52.367Z,1.00
2018-08-25T23:54:21.553Z,0.90
2018-08-25T23:56:50.783Z,1.10
2018-08-25T23:59:20.828Z,1.20
